Time;durP1;ratioP1;P1;durP2;ratioP2;P2;SDS_P1;SDS_P2;PMS_P1;PMS_P2;Temp;Humidity;BMP_temperature;BMP_pressure;BME280_temperature;BME280_humidity;BME280_pressure;Samples;Min_cycle;Max_cycle;Signal;HPM_P1;HPM_P2
2023/11/01 00:00:17;;;;;;;6.13;3.53;;;;;;;;;;5042849;28;20295;-57
2023/11/01 00:02:42;;;;;;;5.78;3.47;;;;;;;;;;5041572;28;20691;-57
2023/11/01 00:05:07;;;;;;;5.60;3.30;;;;;;;;;;5032157;28;20040;-58
2023/11/01 00:07:33;;;;;;;6.65;3.97;;;;;;;;;;5013662;28;20822;-57
2023/11/01 00:09:58;;;;;;;7.53;3.70;;;;;;;;;;5012344;28;20036;-57
2023/11/01 00:12:24;;;;;;;8.68;3.20;;;;;;;;;;5023487;28;20048;-56
2023/11/01 00:14:49;;;;;;;8.65;3.55;;;;;;;;;;5014291;28;20033;-57
2023/11/01 00:17:15;;;;;;;5.63;3.25;;;;;;;;;;5043495;28;20105;-57
2023/11/01 00:19:40;;;;;;;7.47;3.30;;;;;;;;;;5039446;28;20049;-57
2023/11/01 00:22:06;;;;;;;6.50;3.10;;;;;;;;;;5040764;28;20355;-58
2023/11/01 00:24:31;;;;;;;5.63;3.07;;;;;;;;;;5039677;28;20275;-57
2023/11/01 00:26:56;;;;;;;4.93;3.40;;;;;;;;;;5041847;28;20298;-57
2023/11/01 00:29:21;;;;;;;5.27;2.93;;;;;;;;;;5042890;28;20388;-58
2023/11/01 00:31:46;;;;;;;5.27;3.00;;;;;;;;;;5042626;28;20041;-56
2023/11/01 00:34:12;;;;;;;4.80;2.73;;;;;;;;;;5042782;28;20283;-57
2023/11/01 00:36:37;;;;;;;4.88;2.83;;;;;;;;;;5043210;28;20283;-56
2023/11/01 00:39:02;;;;;;;5.50;2.90;;;;;;;;;;5039196;28;20049;-57
2023/11/01 00:41:28;;;;;;;5.55;2.85;;;;;;;;;;5039872;28;20290;-56
2023/11/01 00:43:53;;;;;;;5.50;2.90;;;;;;;;;;5042439;28;20116;-57
2023/11/01 00:46:18;;;;;;;4.65;2.75;;;;;;;;;;5042764;28;20357;-56
2023/11/01 00:48:43;;;;;;;6.23;3.17;;;;;;;;;;5024431;28;20127;-58
2023/11/01 00:51:09;;;;;;;5.60;2.73;;;;;;;;;;5020450;28;20056;-56
2023/11/01 00:53:34;;;;;;;5.33;2.87;;;;;;;;;;5041595;28;20068;-57
2023/11/01 00:55:59;;;;;;;4.00;2.57;;;;;;;;;;5030112;28;20291;-56
2023/11/01 00:58:24;;;;;;;5.90;2.97;;;;;;;;;;5014032;28;20052;-56
2023/11/01 01:00:50;;;;;;;5.97;2.92;;;;;;;;;;5040524;28;20083;-58
2023/11/01 01:03:15;;;;;;;6.23;3.10;;;;;;;;;;5042699;28;20045;-57
2023/11/01 01:05:41;;;;;;;5.00;2.60;;;;;;;;;;5041245;28;20102;-58
2023/11/01 01:08:06;;;;;;;5.00;2.80;;;;;;;;;;5041954;28;20872;-56
2023/11/01 01:10:32;;;;;;;6.05;2.88;;;;;;;;;;5024024;28;20051;-58
2023/11/01 01:12:57;;;;;;;5.27;2.57;;;;;;;;;;5041128;28;20147;-59
2023/11/01 01:15:22;;;;;;;5.17;2.90;;;;;;;;;;5022309;28;20391;-56
2023/11/01 01:17:48;;;;;;;5.47;2.58;;;;;;;;;;5041500;28;20321;-57
2023/11/01 01:20:13;;;;;;;5.03;2.40;;;;;;;;;;5040941;28;20044;-57
2023/11/01 01:22:38;;;;;;;5.37;2.50;;;;;;;;;;5042855;28;20527;-57
2023/11/01 01:25:03;;;;;;;4.77;2.30;;;;;;;;;;5021301;28;20283;-58
2023/11/01 01:27:29;;;;;;;7.07;2.67;;;;;;;;;;5041455;28;20037;-57
2023/11/01 01:29:54;;;;;;;4.93;2.60;;;;;;;;;;5042414;28;20122;-57
2023/11/01 01:32:19;;;;;;;4.47;2.42;;;;;;;;;;5039547;28;20276;-57
2023/11/01 01:34:44;;;;;;;5.67;2.50;;;;;;;;;;5035859;28;20053;-56
2023/11/01 01:37:10;;;;;;;5.13;2.80;;;;;;;;;;5040095;28;20048;-58
2023/11/01 01:39:35;;;;;;;4.63;2.27;;;;;;;;;;5041912;28;20744;-59
2023/11/01 01:42:00;;;;;;;4.60;2.27;;;;;;;;;;5023902;28;20374;-58
2023/11/01 01:44:25;;;;;;;5.20;2.30;;;;;;;;;;5041792;28;20068;-57
2023/11/01 01:46:51;;;;;;;5.27;2.60;;;;;;;;;;5027248;28;20493;-57
2023/11/01 01:49:16;;;;;;;6.40;2.30;;;;;;;;;;5042211;28;20734;-57
2023/11/01 01:51:41;;;;;;;3.63;2.30;;;;;;;;;;5041167;28;20597;-58
2023/11/01 01:54:06;;;;;;;4.07;2.20;;;;;;;;;;5037899;28;20409;-58
2023/11/01 01:56:31;;;;;;;4.53;2.77;;;;;;;;;;5021865;28;20291;-59
2023/11/01 01:58:57;;;;;;;7.05;2.33;;;;;;;;;;5041626;28;20292;-57
2023/11/01 02:01:24;;;;;;;4.57;2.50;;;;;;;;;;5024262;28;20102;-59
2023/11/01 02:03:50;;;;;;;4.28;2.22;;;;;;;;;;5041397;28;20279;-57
2023/11/01 02:06:15;;;;;;;6.73;2.50;;;;;;;;;;5035577;28;20047;-58
2023/11/01 02:08:40;;;;;;;4.83;2.33;;;;;;;;;;5042533;28;20112;-57
2023/11/01 02:11:05;;;;;;;5.13;2.17;;;;;;;;;;5039587;28;20337;-57
2023/11/01 02:13:31;;;;;;;5.20;2.57;;;;;;;;;;5040822;28;20283;-57
2023/11/01 02:15:56;;;;;;;6.78;2.30;;;;;;;;;;5042286;28;20275;-57
2023/11/01 02:18:21;;;;;;;5.43;2.07;;;;;;;;;;5028417;28;20532;-56
2023/11/01 02:20:47;;;;;;;6.47;2.37;;;;;;;;;;5046115;28;20366;-57
2023/11/01 02:23:12;;;;;;;4.25;1.92;;;;;;;;;;5044250;28;20333;-56
2023/11/01 02:25:38;;;;;;;3.33;2.20;;;;;;;;;;5044752;28;20036;-57
2023/11/01 02:28:06;;;;;;;4.95;2.58;;;;;;;;;;5044140;28;20033;-58
2023/11/01 02:30:32;;;;;;;3.85;2.25;;;;;;;;;;5046117;28;20052;-56
2023/11/01 02:32:57;;;;;;;4.20;2.20;;;;;;;;;;5042702;28;20037;-57
2023/11/01 02:35:22;;;;;;;6.43;2.42;;;;;;;;;;5042479;28;20275;-59
2023/11/01 02:37:48;;;;;;;5.10;2.00;;;;;;;;;;5027058;28;20065;-56
2023/11/01 02:40:14;;;;;;;5.82;2.58;;;;;;;;;;5045616;28;20041;-56
2023/11/01 02:42:40;;;;;;;4.70;2.08;;;;;;;;;;5045238;28;20487;-56
2023/11/01 02:45:09;;;;;;;4.00;2.15;;;;;;;;;;5045450;28;20128;-58
2023/11/01 02:47:34;;;;;;;4.70;2.05;;;;;;;;;;5044559;28;20041;-58
2023/11/01 02:50:00;;;;;;;5.65;2.35;;;;;;;;;;5036754;28;20430;-57
2023/11/01 02:52:25;;;;;;;3.60;2.03;;;;;;;;;;5040226;28;20048;-60
2023/11/01 02:54:50;;;;;;;5.00;2.30;;;;;;;;;;5043622;28;20917;-59
2023/11/01 02:57:15;;;;;;;3.80;1.90;;;;;;;;;;5041051;28;20390;-57
2023/11/01 02:59:41;;;;;;;4.47;1.93;;;;;;;;;;5044196;28;20053;-57
2023/11/01 03:02:06;;;;;;;4.38;1.85;;;;;;;;;;5044457;28;20288;-55
2023/11/01 03:04:31;;;;;;;5.63;2.10;;;;;;;;;;5029112;28;20041;-56
2023/11/01 03:06:57;;;;;;;4.38;2.33;;;;;;;;;;5042379;28;20842;-58
2023/11/01 03:09:22;;;;;;;4.57;2.10;;;;;;;;;;5044875;28;20195;-58
2023/11/01 03:11:47;;;;;;;3.37;1.97;;;;;;;;;;5043902;28;20064;-56
2023/11/01 03:14:12;;;;;;;3.28;1.90;;;;;;;;;;5043979;28;20604;-56
2023/11/01 03:16:38;;;;;;;4.80;2.22;;;;;;;;;;5038401;28;20115;-56
2023/11/01 03:19:04;;;;;;;3.90;1.88;;;;;;;;;;5044974;28;20531;-57
2023/11/01 03:21:29;;;;;;;4.40;2.33;;;;;;;;;;5033448;28;20194;-56
2023/11/01 03:23:55;;;;;;;6.70;2.27;;;;;;;;;;5043942;28;20502;-59
2023/11/01 03:26:20;;;;;;;4.67;2.30;;;;;;;;;;5045258;28;20267;-58
2023/11/01 03:28:45;;;;;;;3.73;2.07;;;;;;;;;;5015836;28;20302;-58
2023/11/01 03:31:12;;;;;;;4.50;1.90;;;;;;;;;;5037566;28;20279;-57
2023/11/01 03:33:37;;;;;;;3.97;1.98;;;;;;;;;;5043063;28;20365;-58
2023/11/01 03:36:03;;;;;;;4.23;2.10;;;;;;;;;;5044844;28;20033;-63
2023/11/01 03:38:29;;;;;;;4.43;1.80;;;;;;;;;;5043299;28;20035;-57
2023/11/01 03:40:54;;;;;;;3.75;1.90;;;;;;;;;;5041491;28;20053;-57
2023/11/01 03:43:19;;;;;;;3.97;1.90;;;;;;;;;;5042432;28;20025;-58
2023/11/01 03:45:44;;;;;;;4.20;2.37;;;;;;;;;;5043845;28;20850;-57
2023/11/01 03:48:09;;;;;;;6.47;2.23;;;;;;;;;;5043286;28;20302;-57
2023/11/01 03:50:35;;;;;;;4.47;2.15;;;;;;;;;;5027291;28;20055;-56
2023/11/01 03:53:00;;;;;;;4.83;1.83;;;;;;;;;;5043446;28;20540;-58
2023/11/01 03:55:25;;;;;;;3.88;1.98;;;;;;;;;;5041161;28;20276;-57
2023/11/01 03:57:50;;;;;;;4.57;2.20;;;;;;;;;;5036178;28;20094;-56
2023/11/01 04:00:20;;;;;;;3.57;1.90;;;;;;;;;;5017465;28;20040;-56
2023/11/01 04:02:46;;;;;;;;;;;;;;;;;;5032822;28;20318;-56
2023/11/01 04:05:11;;;;;;;3.75;1.70;;;;;;;;;;5021362;28;19948;-57
2023/11/01 04:07:36;;;;;;;3.55;1.40;;;;;;;;;;5022370;28;20418;-56
2023/11/01 04:10:01;;;;;;;4.30;2.10;;;;;;;;;;5021234;28;20049;-56
2023/11/01 04:12:26;;;;;;;4.73;2.23;;;;;;;;;;5020586;28;20042;-56
2023/11/01 04:14:52;;;;;;;4.30;1.90;;;;;;;;;;5020792;28;20541;-56
2023/11/01 04:17:18;;;;;;;3.17;1.80;;;;;;;;;;5011799;28;20149;-55
2023/11/01 04:19:44;;;;;;;3.33;1.77;;;;;;;;;;5020669;28;20391;-55
2023/11/01 04:22:09;;;;;;;3.20;1.67;;;;;;;;;;5020698;28;20042;-56
2023/11/01 04:24:34;;;;;;;3.53;1.67;;;;;;;;;;5021842;28;20291;-58
2023/11/01 04:26:59;;;;;;;3.73;1.90;;;;;;;;;;5021822;28;20287;-59
2023/11/01 04:29:26;;;;;;;5.07;2.10;;;;;;;;;;5022812;28;20053;-56
2023/11/01 04:31:52;;;;;;;4.05;1.90;;;;;;;;;;5019256;28;20971;-57
2023/11/01 04:34:18;;;;;;;5.25;2.10;;;;;;;;;;5017917;28;20048;-56
2023/11/01 04:36:43;;;;;;;3.42;2.00;;;;;;;;;;5021311;28;20906;-55
2023/11/01 04:39:10;;;;;;;3.47;1.88;;;;;;;;;;5021181;28;20153;-54
2023/11/01 04:41:36;;;;;;;3.47;2.05;;;;;;;;;;5017768;28;20259;-55
2023/11/01 04:44:02;;;;;;;4.18;2.10;;;;;;;;;;5006885;28;20061;-55
2023/11/01 04:46:27;;;;;;;3.55;1.92;;;;;;;;;;5021217;28;20050;-54
2023/11/01 04:48:52;;;;;;;4.93;2.10;;;;;;;;;;5020625;28;20425;-56
2023/11/01 04:51:17;;;;;;;3.23;2.00;;;;;;;;;;5020232;28;20297;-59
2023/11/01 04:53:43;;;;;;;5.47;2.17;;;;;;;;;;5021359;28;20847;-57
2023/11/01 04:56:08;;;;;;;3.50;1.90;;;;;;;;;;5020153;28;20028;-56
2023/11/01 04:58:36;;;;;;;3.10;1.67;;;;;;;;;;5021777;28;20889;-56
2023/11/01 05:01:07;;;;;;;4.25;2.00;;;;;;;;;;5022299;28;20052;-55
2023/11/01 05:03:34;;;;;;;4.88;1.85;;;;;;;;;;5006856;28;20053;-56
2023/11/01 05:05:59;;;;;;;4.57;1.92;;;;;;;;;;5021978;28;20668;-55
2023/11/01 05:08:24;;;;;;;3.80;1.97;;;;;;;;;;5020509;28;20564;-56
2023/11/01 05:10:49;;;;;;;4.67;2.00;;;;;;;;;;5020334;28;20804;-57
2023/11/01 05:13:15;;;;;;;4.00;1.97;;;;;;;;;;5022624;28;20692;-57
2023/11/01 05:15:40;;;;;;;4.22;1.92;;;;;;;;;;5024242;28;20299;-58
2023/11/01 05:18:05;;;;;;;3.65;1.95;;;;;;;;;;5036746;28;20025;-58
2023/11/01 05:20:31;;;;;;;4.47;2.05;;;;;;;;;;5027150;28;20431;-57
2023/11/01 05:22:56;;;;;;;4.83;2.20;;;;;;;;;;5032437;28;20025;-56
2023/11/01 05:25:22;;;;;;;3.53;1.90;;;;;;;;;;5025841;28;20362;-55
2023/11/01 05:27:47;;;;;;;3.75;2.17;;;;;;;;;;5027886;28;20045;-56
2023/11/01 05:30:14;;;;;;;6.38;2.13;;;;;;;;;;5013357;28;20523;-57
2023/11/01 05:32:41;;;;;;;5.45;2.40;;;;;;;;;;5024079;28;20044;-56
2023/11/01 05:35:08;;;;;;;3.88;2.10;;;;;;;;;;5018646;28;20116;-58
2023/11/01 05:37:33;;;;;;;4.63;1.90;;;;;;;;;;5034875;28;20086;-57
2023/11/01 05:39:58;;;;;;;3.63;1.70;;;;;;;;;;5032623;28;20463;-58
2023/11/01 05:42:23;;;;;;;3.53;2.00;;;;;;;;;;5032406;28;20290;-60
2023/11/01 05:44:50;;;;;;;5.13;2.00;;;;;;;;;;4999468;28;20128;-57
2023/11/01 05:47:15;;;;;;;3.13;1.83;;;;;;;;;;5022240;28;20029;-58
2023/11/01 05:49:40;;;;;;;3.20;1.90;;;;;;;;;;4992316;28;20024;-57
2023/11/01 05:52:06;;;;;;;4.37;2.00;;;;;;;;;;5008480;28;20290;-57
2023/11/01 05:54:31;;;;;;;5.38;2.17;;;;;;;;;;5016456;28;20021;-56
2023/11/01 05:56:56;;;;;;;5.30;2.20;;;;;;;;;;5008877;28;20054;-57
2023/11/01 05:59:22;;;;;;;4.45;2.47;;;;;;;;;;5006758;28;20450;-57
2023/11/01 06:01:47;;;;;;;5.00;2.00;;;;;;;;;;5030065;28;20068;-56
2023/11/01 06:04:12;;;;;;;4.53;2.20;;;;;;;;;;5027223;28;20163;-57
2023/11/01 06:06:38;;;;;;;3.70;1.97;;;;;;;;;;5031587;28;20041;-57
2023/11/01 06:09:03;;;;;;;4.70;2.07;;;;;;;;;;5034139;28;20025;-57
2023/11/01 06:11:28;;;;;;;3.47;2.03;;;;;;;;;;5032594;28;20778;-57
2023/11/01 06:13:53;;;;;;;4.95;2.28;;;;;;;;;;5029522;28;20025;-56
2023/11/01 06:16:20;;;;;;;4.63;1.87;;;;;;;;;;5027539;28;20021;-58
2023/11/01 06:18:46;;;;;;;4.55;2.22;;;;;;;;;;5026735;28;20345;-57
2023/11/01 06:21:11;;;;;;;3.53;2.10;;;;;;;;;;5028321;28;20025;-57
2023/11/01 06:23:36;;;;;;;6.20;2.10;;;;;;;;;;5030450;28;20633;-57
2023/11/01 06:26:02;;;;;;;4.80;2.27;;;;;;;;;;5034301;28;20021;-56
2023/11/01 06:28:27;;;;;;;4.47;2.72;;;;;;;;;;5028421;28;20375;-60
2023/11/01 06:30:52;;;;;;;6.77;2.10;;;;;;;;;;5018696;28;20097;-55
2023/11/01 06:33:17;;;;;;;4.50;2.20;;;;;;;;;;5030144;28;20044;-59
2023/11/01 06:35:43;;;;;;;3.65;2.42;;;;;;;;;;5023955;28;20135;-58
2023/11/01 06:38:08;;;;;;;5.87;2.47;;;;;;;;;;5007513;28;20473;-57
2023/11/01 06:40:33;;;;;;;5.03;2.23;;;;;;;;;;5025426;28;20311;-58
2023/11/01 06:42:58;;;;;;;4.73;2.10;;;;;;;;;;5007341;28;20303;-58
2023/11/01 06:45:24;;;;;;;5.07;2.20;;;;;;;;;;5023295;28;20275;-56
2023/11/01 06:47:49;;;;;;;3.35;2.05;;;;;;;;;;5022822;28;21573;-57
2023/11/01 06:50:14;;;;;;;4.40;2.00;;;;;;;;;;5024009;28;20424;-56
2023/11/01 06:52:44;;;;;;;4.57;2.25;;;;;;;;;;5025461;28;20291;-56
2023/11/01 06:55:10;;;;;;;4.85;2.00;;;;;;;;;;5025638;28;20063;-57
2023/11/01 06:57:35;;;;;;;3.60;1.88;;;;;;;;;;5023090;28;20451;-57
2023/11/01 07:00:00;;;;;;;4.88;2.08;;;;;;;;;;5029050;28;20572;-58
2023/11/01 07:02:26;;;;;;;3.53;2.00;;;;;;;;;;5028325;28;20067;-57
2023/11/01 07:04:51;;;;;;;4.45;2.15;;;;;;;;;;5025584;28;20025;-58
2023/11/01 07:07:17;;;;;;;4.83;2.27;;;;;;;;;;5010517;28;20045;-57
2023/11/01 07:09:42;;;;;;;3.75;1.85;;;;;;;;;;4997978;28;20045;-57
2023/11/01 07:12:07;;;;;;;5.03;2.27;;;;;;;;;;5022417;28;20113;-56
2023/11/01 07:14:32;;;;;;;3.92;1.90;;;;;;;;;;5008668;28;20033;-56
2023/11/01 07:16:58;;;;;;;5.75;2.28;;;;;;;;;;5024051;28;20052;-57
2023/11/01 07:19:23;;;;;;;4.07;2.37;;;;;;;;;;5023069;28;20124;-56
2023/11/01 07:21:48;;;;;;;5.93;1.90;;;;;;;;;;5021474;28;20714;-56
2023/11/01 07:24:13;;;;;;;4.50;2.43;;;;;;;;;;5010434;28;20292;-56
2023/11/01 07:26:39;;;;;;;6.20;2.23;;;;;;;;;;5021769;28;20072;-56
2023/11/01 07:29:04;;;;;;;4.28;2.00;;;;;;;;;;5021184;28;20288;-55
2023/11/01 07:31:29;;;;;;;7.43;1.93;;;;;;;;;;5022314;28;20041;-57
2023/11/01 07:33:55;;;;;;;4.93;1.98;;;;;;;;;;5022623;28;20455;-56
2023/11/01 07:36:21;;;;;;;4.88;2.35;;;;;;;;;;5024072;28;20033;-57
2023/11/01 07:38:46;;;;;;;5.05;2.15;;;;;;;;;;5021806;28;20119;-56
2023/11/01 07:41:11;;;;;;;5.10;2.13;;;;;;;;;;5024327;28;20111;-56
2023/11/01 07:43:40;;;;;;;6.23;2.40;;;;;;;;;;5023904;28;20123;-56
2023/11/01 07:46:05;;;;;;;6.47;2.22;;;;;;;;;;5022478;28;20288;-56
2023/11/01 07:48:30;;;;;;;4.82;2.03;;;;;;;;;;5023090;28;20524;-58
2023/11/01 07:50:55;;;;;;;5.77;2.13;;;;;;;;;;5027480;28;20044;-56
2023/11/01 07:53:21;;;;;;;5.63;2.38;;;;;;;;;;5028817;28;20284;-55
2023/11/01 07:55:46;;;;;;;3.77;2.03;;;;;;;;;;5027536;28;20472;-57
2023/11/01 07:58:11;;;;;;;4.80;2.20;;;;;;;;;;5018466;28;20280;-55
2023/11/01 08:00:38;;;;;;;3.95;2.03;;;;;;;;;;5025673;28;20782;-57
2023/11/01 08:03:03;;;;;;;4.25;2.33;;;;;;;;;;5028269;28;20056;-58
2023/11/01 08:05:29;;;;;;;4.17;1.90;;;;;;;;;;5025169;28;20037;-58
2023/11/01 08:07:54;;;;;;;4.43;2.28;;;;;;;;;;5026852;28;20357;-60
2023/11/01 08:10:21;;;;;;;4.93;2.20;;;;;;;;;;5026012;28;20033;-56
2023/11/01 08:12:46;;;;;;;5.93;2.20;;;;;;;;;;5027434;28;20582;-58
2023/11/01 08:15:11;;;;;;;5.77;2.50;;;;;;;;;;5025459;28;22061;-55
2023/11/01 08:17:37;;;;;;;7.40;2.50;;;;;;;;;;5023367;28;20763;-57
2023/11/01 08:20:02;;;;;;;4.50;2.13;;;;;;;;;;5025189;28;20057;-55
2023/11/01 08:22:27;;;;;;;5.55;2.50;;;;;;;;;;5015351;28;20668;-56
2023/11/01 08:24:53;;;;;;;4.90;2.30;;;;;;;;;;5008768;28;20060;-56
2023/11/01 08:27:18;;;;;;;4.43;2.25;;;;;;;;;;5025159;28;20295;-58
2023/11/01 08:29:43;;;;;;;5.93;2.30;;;;;;;;;;5006255;28;20749;-55
2023/11/01 08:32:09;;;;;;;5.22;2.33;;;;;;;;;;5022583;28;20314;-58
2023/11/01 08:34:34;;;;;;;3.78;1.92;;;;;;;;;;5029402;28;20516;-59
2023/11/01 08:36:59;;;;;;;4.82;2.20;;;;;;;;;;5023995;28;20033;-57
2023/11/01 08:39:25;;;;;;;5.10;2.20;;;;;;;;;;5029643;28;20040;-57
2023/11/01 08:41:50;;;;;;;6.53;2.73;;;;;;;;;;5019340;28;20033;-59
2023/11/01 08:44:15;;;;;;;4.60;2.35;;;;;;;;;;5024827;28;20290;-57
2023/11/01 08:46:40;;;;;;;5.30;2.47;;;;;;;;;;5012694;28;20021;-57
2023/11/01 08:49:06;;;;;;;4.78;2.47;;;;;;;;;;5023714;28;20314;-57
2023/11/01 08:51:31;;;;;;;4.77;2.47;;;;;;;;;;5024431;28;20056;-56
2023/11/01 08:54:00;;;;;;;3.88;2.20;;;;;;;;;;5027826;28;20298;-58
2023/11/01 08:56:26;;;;;;;5.28;2.30;;;;;;;;;;5029444;28;20564;-58
2023/11/01 08:58:52;;;;;;;4.03;2.30;;;;;;;;;;5026192;28;20183;-58
2023/11/01 09:01:17;;;;;;;5.60;2.15;;;;;;;;;;5005029;28;20037;-57
2023/11/01 09:03:42;;;;;;;5.40;2.17;;;;;;;;;;5021419;28;20031;-55
2023/11/01 09:06:08;;;;;;;8.03;2.47;;;;;;;;;;5025268;28;20314;-58
2023/11/01 09:08:33;;;;;;;7.20;2.38;;;;;;;;;;5027769;28;20110;-58
2023/11/01 09:10:58;;;;;;;4.03;2.23;;;;;;;;;;5023936;28;20067;-56
2023/11/01 09:13:24;;;;;;;5.53;2.55;;;;;;;;;;5023915;28;20045;-57
2023/11/01 09:15:49;;;;;;;5.00;2.60;;;;;;;;;;5026535;28;20057;-57
2023/11/01 09:18:14;;;;;;;5.60;2.47;;;;;;;;;;5024592;28;20538;-59
2023/11/01 09:20:39;;;;;;;6.00;2.75;;;;;;;;;;5024852;28;20053;-57
2023/11/01 09:23:05;;;;;;;8.45;2.53;;;;;;;;;;5024481;28;20055;-56
2023/11/01 09:25:30;;;;;;;4.27;2.33;;;;;;;;;;5022166;28;20021;-59
2023/11/01 09:27:56;;;;;;;4.80;2.58;;;;;;;;;;5023373;28;20148;-57
2023/11/01 09:30:21;;;;;;;5.65;2.60;;;;;;;;;;5026062;28;20020;-56
2023/11/01 09:32:46;;;;;;;4.40;2.30;;;;;;;;;;5026072;28;20381;-55
2023/11/01 09:35:12;;;;;;;5.10;2.47;;;;;;;;;;5014633;28;20275;-56
2023/11/01 09:37:37;;;;;;;5.55;2.40;;;;;;;;;;5012319;28;20268;-56
2023/11/01 09:40:03;;;;;;;4.90;2.42;;;;;;;;;;5017149;28;20039;-58
2023/11/01 09:42:28;;;;;;;5.05;2.50;;;;;;;;;;5024414;28;20033;-57
2023/11/01 09:44:55;;;;;;;4.80;2.40;;;;;;;;;;5026830;28;20028;-58
2023/11/01 09:47:21;;;;;;;6.25;2.85;;;;;;;;;;5026209;28;20354;-58
2023/11/01 09:49:47;;;;;;;5.90;2.45;;;;;;;;;;5026904;28;20461;-55
2023/11/01 09:52:12;;;;;;;7.28;2.90;;;;;;;;;;5026645;28;20453;-56
2023/11/01 09:54:37;;;;;;;4.75;2.70;;;;;;;;;;5024795;28;20021;-56
2023/11/01 09:57:04;;;;;;;5.03;2.63;;;;;;;;;;5024898;28;20029;-56
2023/11/01 09:59:29;;;;;;;4.10;2.70;;;;;;;;;;4997106;28;20756;-59
2023/11/01 10:01:55;;;;;;;5.88;2.75;;;;;;;;;;5029467;28;20063;-57
2023/11/01 10:04:20;;;;;;;4.22;2.83;;;;;;;;;;5028399;28;20047;-57
2023/11/01 10:06:46;;;;;;;4.18;2.90;;;;;;;;;;5011241;28;20060;-57
2023/11/01 10:09:11;;;;;;;4.53;2.92;;;;;;;;;;5010646;28;20040;-58
2023/11/01 10:11:37;;;;;;;4.60;2.90;;;;;;;;;;5025294;28;20065;-58
2023/11/01 10:14:02;;;;;;;5.07;2.70;;;;;;;;;;5025286;28;20037;-58
2023/11/01 10:16:27;;;;;;;4.57;2.78;;;;;;;;;;5010361;28;20048;-59
2023/11/01 10:18:53;;;;;;;4.70;2.75;;;;;;;;;;5024989;28;20037;-58
2023/11/01 10:21:19;;;;;;;5.28;3.00;;;;;;;;;;5026248;28;21590;-57
2023/11/01 10:23:44;;;;;;;5.00;2.97;;;;;;;;;;5011138;28;20041;-59
2023/11/01 10:26:09;;;;;;;5.70;2.90;;;;;;;;;;5024431;28;20060;-59
2023/11/01 10:28:41;;;;;;;4.80;2.97;;;;;;;;;;5012145;28;20302;-57
2023/11/01 10:31:07;;;;;;;4.65;2.75;;;;;;;;;;5016346;28;20334;-58
2023/11/01 10:33:33;;;;;;;3.97;2.50;;;;;;;;;;5015066;28;20497;-59
2023/11/01 10:36:02;;;;;;;4.72;2.97;;;;;;;;;;5016316;28;20033;-59
2023/11/01 10:38:28;;;;;;;5.57;2.97;;;;;;;;;;5025724;28;20487;-57
2023/11/01 10:40:55;;;;;;;4.35;2.70;;;;;;;;;;5008379;28;20060;-61
2023/11/01 10:43:22;;;;;;;3.58;2.50;;;;;;;;;;5009105;28;20091;-59
2023/11/01 10:45:48;;;;;;;4.88;3.28;;;;;;;;;;5013709;28;20789;-58
2023/11/01 10:48:13;;;;;;;4.72;2.85;;;;;;;;;;4999701;28;20040;-59
2023/11/01 10:50:39;;;;;;;4.70;2.83;;;;;;;;;;5024708;28;20568;-58
2023/11/01 10:53:04;;;;;;;5.63;2.72;;;;;;;;;;5023314;28;20300;-59
2023/11/01 10:55:29;;;;;;;4.20;2.83;;;;;;;;;;5024594;28;21004;-61
2023/11/01 10:57:55;;;;;;;3.70;3.10;;;;;;;;;;5010664;28;20432;-59
2023/11/01 11:00:26;;;;;;;5.13;2.83;;;;;;;;;;5023506;28;20048;-59
2023/11/01 11:02:53;;;;;;;4.50;3.08;;;;;;;;;;4997632;28;20538;-58
2023/11/01 11:05:22;;;;;;;3.83;2.85;;;;;;;;;;5011063;28;20094;-57
2023/11/01 11:07:48;;;;;;;4.47;2.88;;;;;;;;;;5021127;28;20033;-56
2023/11/01 11:10:20;;;;;;;4.25;2.70;;;;;;;;;;5024187;28;20060;-58
2023/11/01 11:12:45;;;;;;;3.88;2.92;;;;;;;;;;5023292;28;20056;-57
2023/11/01 11:15:10;;;;;;;3.53;2.70;;;;;;;;;;5023650;28;20034;-57
2023/11/01 11:17:38;;;;;;;3.70;2.80;;;;;;;;;;5024125;28;20287;-55
2023/11/01 11:20:10;;;;;;;4.88;2.85;;;;;;;;;;5024505;28;20052;-59
2023/11/01 11:22:54;;;;;;;3.22;2.53;;;;;;;;;;5009318;28;20103;-56
2023/11/01 11:25:38;;;;;;;4.75;2.70;;;;;;;;;;5023333;28;20055;-58
2023/11/01 11:28:10;;;;;;;4.40;2.92;;;;;;;;;;5022885;28;20056;-57
2023/11/01 11:30:44;;;;;;;3.92;2.80;;;;;;;;;;5023122;28;20463;-59
2023/11/01 11:33:10;;;;;;;3.47;2.60;;;;;;;;;;5023396;28;20146;-57
2023/11/01 11:35:35;;;;;;;4.22;2.75;;;;;;;;;;5022121;28;20041;-58
2023/11/01 11:38:21;;;;;;;4.32;2.92;;;;;;;;;;5023771;28;20378;-56
2023/11/01 11:40:46;;;;;;;5.88;2.97;;;;;;;;;;5023180;28;20494;-56
2023/11/01 11:43:11;;;;;;;4.10;2.93;;;;;;;;;;5010726;28;20025;-58
2023/11/01 11:45:36;;;;;;;4.10;2.97;;;;;;;;;;5022164;28;20038;-57
2023/11/01 11:48:04;;;;;;;4.53;2.70;;;;;;;;;;5023104;28;20039;-58
2023/11/01 11:50:30;;;;;;;6.07;3.17;;;;;;;;;;5008269;28;20753;-59
2023/11/01 11:52:55;;;;;;;4.20;2.50;;;;;;;;;;5022487;28;20060;-57
2023/11/01 11:55:46;;;;;;;4.32;3.00;;;;;;;;;;5022791;28;20704;-58
2023/11/01 11:58:11;;;;;;;4.32;2.60;;;;;;;;;;4993006;28;20041;-57
2023/11/01 12:00:37;;;;;;;4.65;3.13;;;;;;;;;;5023906;28;20072;-59
2023/11/01 12:03:03;;;;;;;4.93;2.83;;;;;;;;;;5012051;28;20033;-58
2023/11/01 12:05:32;;;;;;;4.78;3.10;;;;;;;;;;5022428;28;22109;-59
2023/11/01 12:07:57;;;;;;;4.53;2.97;;;;;;;;;;5022217;28;20851;-56
2023/11/01 12:10:23;;;;;;;3.35;2.60;;;;;;;;;;5020040;28;20156;-60
2023/11/01 12:12:54;;;;;;;4.22;2.90;;;;;;;;;;5020837;28;20106;-58
2023/11/01 12:15:19;;;;;;;3.72;2.60;;;;;;;;;;5022385;28;20041;-57
2023/11/01 12:17:44;;;;;;;4.78;2.85;;;;;;;;;;5020831;28;20034;-59
2023/11/01 12:20:10;;;;;;;4.47;3.20;;;;;;;;;;5021204;28;20059;-59
2023/11/01 12:22:44;;;;;;;4.75;3.10;;;;;;;;;;5022738;28;20288;-58
2023/11/01 12:25:09;;;;;;;3.60;2.58;;;;;;;;;;5013344;28;20120;-58
2023/11/01 12:27:34;;;;;;;5.90;3.30;;;;;;;;;;5019673;28;20115;-57
2023/11/01 12:30:00;;;;;;;4.90;3.00;;;;;;;;;;5020069;28;20299;-57
2023/11/01 12:32:27;;;;;;;4.47;2.97;;;;;;;;;;5021745;28;20033;-60
2023/11/01 12:34:52;;;;;;;3.95;2.90;;;;;;;;;;5022234;28;20064;-58
2023/11/01 12:37:20;;;;;;;4.73;2.43;;;;;;;;;;5022175;28;20132;-58
2023/11/01 12:40:07;;;;;;;3.35;2.58;;;;;;;;;;5021249;28;20478;-57
2023/11/01 12:42:33;;;;;;;4.50;3.15;;;;;;;;;;5023045;28;20556;-57
2023/11/01 12:44:58;;;;;;;3.50;2.80;;;;;;;;;;5014556;28;20029;-57
2023/11/01 12:47:23;;;;;;;3.55;2.67;;;;;;;;;;5007843;28;20029;-57
2023/11/01 12:49:49;;;;;;;4.82;3.00;;;;;;;;;;5023465;28;20346;-59
2023/11/01 12:52:14;;;;;;;3.70;2.55;;;;;;;;;;5020143;28;20041;-59
2023/11/01 12:54:40;;;;;;;4.82;3.00;;;;;;;;;;5022734;28;20095;-59
2023/11/01 12:57:06;;;;;;;3.42;2.92;;;;;;;;;;5022239;28;20033;-57
2023/11/01 12:59:31;;;;;;;3.60;2.83;;;;;;;;;;4992207;28;20114;-58
2023/11/01 13:01:56;;;;;;;4.22;2.72;;;;;;;;;;5021202;28;20041;-59
2023/11/01 13:04:22;;;;;;;3.97;2.73;;;;;;;;;;5022766;28;20049;-58
2023/11/01 13:06:47;;;;;;;3.25;2.60;;;;;;;;;;5024831;28;20043;-57
2023/11/01 13:09:14;;;;;;;2.97;2.30;;;;;;;;;;5025785;28;20055;-57
2023/11/01 13:11:39;;;;;;;3.67;2.60;;;;;;;;;;5032270;28;20539;-58
2023/11/01 13:14:05;;;;;;;3.40;2.50;;;;;;;;;;5024842;28;20037;-58
2023/11/01 13:16:30;;;;;;;5.47;2.47;;;;;;;;;;5032849;28;20698;-57
2023/11/01 13:18:55;;;;;;;5.17;2.43;;;;;;;;;;5008759;28;20292;-56
2023/11/01 13:21:21;;;;;;;3.93;2.67;;;;;;;;;;5013787;28;20068;-58
2023/11/01 13:23:46;;;;;;;3.88;2.30;;;;;;;;;;5017400;28;20040;-58
2023/11/01 13:26:12;;;;;;;3.80;2.50;;;;;;;;;;5020021;28;20033;-58
2023/11/01 13:28:37;;;;;;;5.43;2.70;;;;;;;;;;5026375;28;20041;-58
2023/11/01 13:31:02;;;;;;;3.50;2.50;;;;;;;;;;5004351;28;20557;-58
2023/11/01 13:33:27;;;;;;;3.65;2.33;;;;;;;;;;5002743;28;20296;-59
2023/11/01 13:35:53;;;;;;;4.53;2.50;;;;;;;;;;5016718;28;20033;-57
2023/11/01 13:38:18;;;;;;;3.17;2.60;;;;;;;;;;5018297;28;20077;-58
2023/11/01 13:40:44;;;;;;;4.03;2.50;;;;;;;;;;5019458;28;20529;-57
2023/11/01 13:43:09;;;;;;;4.03;2.40;;;;;;;;;;4994444;28;20361;-59
2023/11/01 13:45:36;;;;;;;3.88;2.53;;;;;;;;;;5002411;28;20100;-58
2023/11/01 13:48:01;;;;;;;4.22;2.53;;;;;;;;;;5012823;28;20030;-57
2023/11/01 13:50:26;;;;;;;3.70;2.50;;;;;;;;;;5029745;28;20040;-57
2023/11/01 13:52:52;;;;;;;2.47;1.87;;;;;;;;;;5001702;28;20049;-62
2023/11/01 13:55:18;;;;;;;3.20;2.15;;;;;;;;;;5018472;28;20768;-56
2023/11/01 13:57:43;;;;;;;3.60;2.60;;;;;;;;;;5033184;28;20128;-57
2023/11/01 14:00:08;;;;;;;4.73;2.37;;;;;;;;;;5016216;28;20319;-57
2023/11/01 14:02:34;;;;;;;3.35;2.53;;;;;;;;;;5026909;28;20718;-59
2023/11/01 14:04:59;;;;;;;4.90;2.20;;;;;;;;;;5018057;28;20033;-58
2023/11/01 14:07:25;;;;;;;2.73;2.27;;;;;;;;;;5028889;28;20327;-59
2023/11/01 14:09:51;;;;;;;4.20;2.20;;;;;;;;;;5013272;28;20531;-57
2023/11/01 14:12:16;;;;;;;4.88;2.20;;;;;;;;;;5011546;28;20764;-59
2023/11/01 14:14:41;;;;;;;3.78;2.47;;;;;;;;;;5014326;28;20384;-56
2023/11/01 14:17:07;;;;;;;3.90;2.05;;;;;;;;;;5030259;28;20033;-57
2023/11/01 14:19:32;;;;;;;3.28;2.17;;;;;;;;;;5031157;28;20049;-56
2023/11/01 14:21:57;;;;;;;3.15;2.20;;;;;;;;;;5031449;28;20057;-58
2023/11/01 14:24:23;;;;;;;3.40;2.10;;;;;;;;;;5033351;28;20112;-56
2023/11/01 14:26:48;;;;;;;2.70;2.30;;;;;;;;;;5034668;28;20299;-58
2023/11/01 14:29:14;;;;;;;3.27;2.50;;;;;;;;;;5025285;28;20495;-55
2023/11/01 14:31:39;;;;;;;6.20;2.30;;;;;;;;;;5017221;28;20473;-55
2023/11/01 14:34:05;;;;;;;3.60;2.40;;;;;;;;;;5029939;28;20504;-56